createdAt,value
2023-04-22T00:02:58.273Z,6.35
2023-04-22T00:10:33.494Z,6.30
2023-04-22T00:18:13.863Z,6.57
2023-04-22T00:25:49.609Z,6.47
2023-04-22T00:33:23.394Z,7.18
2023-04-22T00:40:59.094Z,6.45
2023-04-22T00:48:33.584Z,6.88
2023-04-22T00:56:09.578Z,6.33
2023-04-22T01:03:45.170Z,6.47
2023-04-22T01:11:20.836Z,6.65
2023-04-22T01:18:54.623Z,6.53
2023-04-22T01:26:30.518Z,5.95
2023-04-22T01:34:04.288Z,6.93
2023-04-22T01:41:39.667Z,7.10
2023-04-22T01:49:13.877Z,6.43
2023-04-22T01:56:53.155Z,7.40
2023-04-22T02:04:28.240Z,8.30
2023-04-22T02:19:37.760Z,7.38
2023-04-22T02:27:13.326Z,6.43
2023-04-22T02:34:47.514Z,6.78
2023-04-22T02:50:14.368Z,6.97
2023-04-22T02:57:49.680Z,6.57
2023-04-22T03:05:23.719Z,6.97
2023-04-22T03:12:59.448Z,7.03
2023-04-22T03:20:33.632Z,7.30
2023-04-22T03:28:08.933Z,6.87
2023-04-22T03:35:42.693Z,6.72
2023-04-22T03:43:18.069Z,6.40
2023-04-22T03:50:52.131Z,6.65
2023-04-22T03:58:27.545Z,7.87
2023-04-22T04:06:01.719Z,6.63
2023-04-22T04:13:37.145Z,7.50
2023-04-22T04:21:10.992Z,7.07
2023-04-22T04:28:47.312Z,7.78
2023-04-22T04:36:21.756Z,6.72
2023-04-22T04:43:57.092Z,8.47
2023-04-22T04:51:32.639Z,7.80
2023-04-22T04:59:08.015Z,8.90
2023-04-22T05:06:41.974Z,8.20
2023-04-22T05:14:17.522Z,7.47
2023-04-22T05:21:51.653Z,8.55
2023-04-22T05:29:27.022Z,7.83
2023-04-22T05:37:00.796Z,7.45
2023-04-22T05:44:35.976Z,8.95
2023-04-22T05:52:13.011Z,7.82
2023-04-22T06:07:39.709Z,9.02
2023-04-22T06:15:15.047Z,8.13
2023-04-22T06:22:48.989Z,8.55
2023-04-22T06:30:24.340Z,8.27
2023-04-22T06:37:58.852Z,10.15
2023-04-22T06:45:34.416Z,10.13
2023-04-22T06:53:09.967Z,10.10
2023-04-22T07:00:45.264Z,10.38
2023-04-22T07:08:19.690Z,9.88
2023-04-22T07:15:54.952Z,10.43
2023-04-22T07:23:28.798Z,10.55
2023-04-22T07:31:04.267Z,8.88
2023-04-22T07:38:38.371Z,9.65
2023-04-22T07:46:13.617Z,9.73
2023-04-22T07:53:47.476Z,8.23
2023-04-22T08:01:23.090Z,9.15
2023-04-22T08:08:57.009Z,9.55
2023-04-22T08:16:32.320Z,10.10
2023-04-22T08:24:08.086Z,9.20
2023-04-22T08:31:43.714Z,8.57
2023-04-22T08:39:18.176Z,8.82
2023-04-22T08:46:54.642Z,9.00
2023-04-22T08:54:28.604Z,8.60
2023-04-22T09:02:04.295Z,7.95
2023-04-22T09:09:38.851Z,8.10
2023-04-22T09:17:17.259Z,6.97
2023-04-22T09:24:51.828Z,7.55
2023-04-22T09:35:54.932Z,7.18
2023-04-22T09:43:33.885Z,6.55
2023-04-22T09:51:16.895Z,6.25
2023-04-22T09:58:53.902Z,6.28
2023-04-22T10:06:31.944Z,7.03
2023-04-22T10:14:05.839Z,6.60
2023-04-22T10:21:43.219Z,6.53
2023-04-22T10:37:12.934Z,6.07
2023-04-22T10:44:50.207Z,5.88
2023-04-22T10:52:30.612Z,6.32
2023-04-22T11:00:45.613Z,6.70
2023-04-22T11:08:23.992Z,5.80
2023-04-22T11:15:58.018Z,5.60
2023-04-22T11:23:33.838Z,6.03
2023-04-22T11:31:10.580Z,5.35
2023-04-22T11:38:55.944Z,5.60
2023-04-22T11:54:07.197Z,5.78
2023-04-22T12:01:44.665Z,6.75
2023-04-22T12:09:19.881Z,5.00
2023-04-22T12:16:53.844Z,4.88
2023-04-22T12:24:30.284Z,5.90
2023-04-22T12:32:04.253Z,6.00
2023-04-22T12:39:39.921Z,5.68
2023-04-22T12:47:14.638Z,5.60
2023-04-22T12:54:50.261Z,6.63
2023-04-22T13:02:24.422Z,6.85
2023-04-22T13:10:00.606Z,6.53
2023-04-22T13:17:35.042Z,6.32
2023-04-22T13:25:11.969Z,6.35
2023-04-22T13:32:46.209Z,6.05
2023-04-22T13:40:21.714Z,6.00
2023-04-22T13:47:56.206Z,7.32
2023-04-22T13:55:31.667Z,6.63
2023-04-22T14:03:06.598Z,5.93
2023-04-22T14:10:42.084Z,5.85
2023-04-22T14:18:15.953Z,6.15
2023-04-22T14:25:51.292Z,6.25
2023-04-22T14:33:25.657Z,5.95
2023-04-22T14:41:01.013Z,6.20
2023-04-22T14:48:35.693Z,6.68
2023-04-22T14:56:12.066Z,6.40
2023-04-22T15:03:46.725Z,5.97
2023-04-22T15:11:22.772Z,4.90
2023-04-22T15:18:56.897Z,5.10
2023-04-22T15:26:33.447Z,4.80
2023-04-22T15:34:07.452Z,5.22
2023-04-22T15:41:44.179Z,4.50
2023-04-22T15:49:19.139Z,4.82
2023-04-22T16:04:28.359Z,4.97
2023-04-22T16:12:04.172Z,5.20
2023-04-22T16:19:38.293Z,5.63
2023-04-22T16:27:16.904Z,5.33
2023-04-22T16:34:51.173Z,4.80
2023-04-22T16:42:26.649Z,5.50
2023-04-22T16:50:01.263Z,5.10
2023-04-22T16:57:36.503Z,4.82
2023-04-22T17:05:10.807Z,5.68
2023-04-22T17:12:47.590Z,5.87
2023-04-22T17:20:21.540Z,5.60
2023-04-22T17:27:56.980Z,5.82
2023-04-22T17:35:30.872Z,5.38
2023-04-22T17:43:06.095Z,5.68
2023-04-22T17:50:40.150Z,6.03
2023-04-22T17:58:15.279Z,6.87
2023-04-22T18:05:49.116Z,6.60
2023-04-22T18:13:24.663Z,6.55
2023-04-22T18:20:59.039Z,6.25
2023-04-22T18:28:34.294Z,5.90
2023-04-22T18:36:08.980Z,6.68
2023-04-22T18:43:44.525Z,6.70
2023-04-22T18:51:18.695Z,6.43
2023-04-22T18:58:55.322Z,6.93
2023-04-22T19:06:30.532Z,6.95
2023-04-22T19:21:40.017Z,8.67
2023-04-22T19:29:16.259Z,7.72
2023-04-22T19:36:51.086Z,8.45
2023-04-22T19:44:26.460Z,9.90
2023-04-22T19:52:03.067Z,10.38
2023-04-22T19:59:40.770Z,14.20
2023-04-22T20:07:16.939Z,10.23
2023-04-22T20:15:00.089Z,9.70
2023-04-22T20:22:41.648Z,9.98
2023-04-22T20:30:18.218Z,10.15
2023-04-22T20:37:57.729Z,10.07
2023-04-22T20:45:32.920Z,9.77
2023-04-22T20:53:06.889Z,9.70
2023-04-22T21:00:42.066Z,9.88
2023-04-22T21:16:00.302Z,10.13
2023-04-22T21:23:34.631Z,10.02
2023-04-22T21:31:11.670Z,10.43
2023-04-22T21:38:45.551Z,10.32
2023-04-22T21:46:22.241Z,9.57
2023-04-22T21:53:56.177Z,10.13
2023-04-22T22:01:31.897Z,10.05
2023-04-22T22:09:07.224Z,10.43
2023-04-22T22:16:43.868Z,9.75
2023-04-22T22:24:17.760Z,9.27
2023-04-22T22:31:53.061Z,9.20
2023-04-22T22:39:27.082Z,9.55
2023-04-22T22:47:02.660Z,9.82
2023-04-22T22:54:38.015Z,9.32
2023-04-22T23:02:14.198Z,7.95
2023-04-22T23:09:48.114Z,8.10
2023-04-22T23:17:23.584Z,9.18
2023-04-22T23:24:58.173Z,9.32
2023-04-22T23:32:36.454Z,9.03
2023-04-22T23:40:11.721Z,9.35
2023-04-22T23:47:47.355Z,8.50
2023-04-22T23:55:21.959Z,9.20
